Time;durP1;ratioP1;P1;durP2;ratioP2;P2;SDS_P1;SDS_P2;PMS_P1;PMS_P2;Temp;Humidity;BMP_temperature;BMP_pressure;BME280_temperature;BME280_humidity;BME280_pressure;Samples;Min_cycle;Max_cycle;Signal;HPM_P1;HPM_P2
2023/12/31 00:01:00;;;;;;;1.33;1.33;;;;;;;5.01;85.11;95103.00;4367044;32;20323;-71
2023/12/31 00:03:27;;;;;;;2.60;1.43;;;;;;;4.75;85.73;95094.34;4355113;32;20277;-72
2023/12/31 00:05:52;;;;;;;0.97;0.97;;;;;;;4.63;86.21;95089.34;4335669;32;20277;-72
2023/12/31 00:08:19;;;;;;;1.27;1.23;;;;;;;4.69;86.25;95090.91;4374903;32;20334;-71
2023/12/31 00:10:45;;;;;;;0.80;0.80;;;;;;;4.68;86.26;95084.09;4359454;32;20192;-71
2023/12/31 00:13:11;;;;;;;4.27;1.50;;;;;;;4.55;86.73;95079.34;4367783;32;20310;-71
2023/12/31 00:15:36;;;;;;;0.80;0.80;;;;;;;4.16;88.25;95075.63;4375792;32;20284;-72
2023/12/31 00:18:01;;;;;;;0.73;0.73;;;;;;;4.12;88.53;95070.88;4375978;32;20260;-72
2023/12/31 00:20:29;;;;;;;1.10;1.10;;;;;;;4.18;88.91;95065.62;4368072;32;20345;-71
2023/12/31 00:22:54;;;;;;;0.97;0.97;;;;;;;4.42;87.72;95069.34;4350955;32;20332;-72
2023/12/31 00:25:19;;;;;;;4.63;1.27;;;;;;;4.58;87.06;95063.06;4372484;32;20280;-71
2023/12/31 00:27:46;;;;;;;0.87;0.87;;;;;;;4.76;86.28;95054.69;4374835;32;20321;-72
2023/12/31 00:30:13;;;;;;;2.30;1.33;;;;;;;4.73;85.99;95054.41;4369688;32;20244;-71
2023/12/31 00:32:39;;;;;;;1.13;0.87;;;;;;;4.61;86.37;95056.50;4375132;32;20347;-71
2023/12/31 00:35:06;;;;;;;0.87;0.63;;;;;;;4.42;87.23;95046.50;4365581;32;20291;-72
2023/12/31 00:37:31;;;;;;;0.93;0.93;;;;;;;4.53;86.95;95049.94;4373865;32;20226;-71
2023/12/31 00:39:56;;;;;;;0.60;0.60;;;;;;;4.62;86.11;95043.09;4375922;32;20288;-71
2023/12/31 00:42:22;;;;;;;1.00;1.00;;;;;;;4.88;85.02;95037.84;4360113;32;20164;-71
2023/12/31 00:44:47;;;;;;;0.63;0.63;;;;;;;4.95;84.69;95041.00;4347020;32;20199;-73
2023/12/31 00:47:14;;;;;;;1.07;1.00;;;;;;;5.03;84.51;95043.06;4354067;32;20234;-71
2023/12/31 00:49:39;;;;;;;0.77;0.77;;;;;;;4.97;84.20;95041.53;4354469;32;20205;-71
2023/12/31 00:52:05;;;;;;;1.07;1.00;;;;;;;5.02;83.87;95046.75;4355785;32;20270;-72
2023/12/31 00:54:30;;;;;;;0.73;0.73;;;;;;;5.09;83.62;95053.34;4369939;32;20278;-71
2023/12/31 00:56:57;;;;;;;0.83;0.83;;;;;;;4.88;84.11;95054.41;4355189;32;20196;-71
2023/12/31 00:59:22;;;;;;;0.77;0.77;;;;;;;4.91;84.11;95050.47;4369874;32;20185;-71
2023/12/31 01:01:48;;;;;;;0.83;0.83;;;;;;;5.14;83.20;95052.53;4329911;32;20320;-71
2023/12/31 01:04:14;;;;;;;0.47;0.47;;;;;;;4.75;84.40;95053.09;4351589;32;20286;-71
2023/12/31 01:06:39;;;;;;;0.90;0.90;;;;;;;4.88;84.22;95048.34;4366803;32;20297;-71
2023/12/31 01:09:06;;;;;;;0.87;0.87;;;;;;;4.78;84.99;95043.91;4341629;32;20204;-72
2023/12/31 01:11:34;;;;;;;0.80;0.80;;;;;;;4.68;85.33;95036.81;4333853;32;20280;-72
2023/12/31 01:13:59;;;;;;;0.70;0.70;;;;;;;4.49;86.09;95033.91;4321745;32;20292;-72
2023/12/31 01:16:25;;;;;;;0.63;0.63;;;;;;;4.55;86.22;95032.09;4338326;32;20358;-71
2023/12/31 01:18:50;;;;;;;1.00;1.00;;;;;;;4.64;85.56;95033.13;4373589;32;20212;-71
2023/12/31 01:21:19;;;;;;;0.43;0.43;;;;;;;4.71;85.15;95028.41;4351157;32;20208;-71
2023/12/31 01:23:45;;;;;;;0.50;0.50;;;;;;;4.46;86.03;95028.38;4378083;32;20188;-71
2023/12/31 01:26:13;;;;;;;0.50;0.50;;;;;;;4.29;86.30;95025.22;4375727;32;20299;-71
2023/12/31 01:28:40;;;;;;;0.63;0.63;;;;;;;4.15;87.31;95027.56;4365813;32;20280;-70
2023/12/31 01:31:06;;;;;;;0.60;0.60;;;;;;;4.26;87.19;95012.62;4375931;32;20334;-71
2023/12/31 01:33:35;;;;;;;0.47;0.47;;;;;;;4.24;86.99;95015.50;4364457;32;20308;-71
2023/12/31 01:36:00;;;;;;;0.63;0.63;;;;;;;4.14;87.58;95015.50;4373441;32;20193;-72
2023/12/31 01:38:26;;;;;;;1.43;1.13;;;;;;;3.93;88.55;95003.38;4371927;32;20303;-72
2023/12/31 01:40:53;;;;;;;0.40;0.40;;;;;;;3.97;88.58;95004.41;4368027;32;20195;-71
2023/12/31 01:43:20;;;;;;;0.97;0.97;;;;;;;3.94;88.64;95005.75;4359330;32;20236;-71
2023/12/31 01:45:49;;;;;;;0.93;0.73;;;;;;;3.93;88.77;94995.50;4352089;32;20297;-71
2023/12/31 01:48:18;;;;;;;0.77;0.77;;;;;;;4.00;88.31;94991.56;4361864;32;20307;-71
2023/12/31 01:50:45;;;;;;;1.30;1.27;;;;;;;4.22;87.52;94990.56;4360194;32;20303;-71
2023/12/31 01:53:15;;;;;;;0.47;0.47;;;;;;;4.36;86.78;94984.53;4348314;32;20345;-71
2023/12/31 01:55:43;;;;;;;3.13;1.07;;;;;;;4.40;86.13;94982.94;4349860;32;20328;-65
2023/12/31 01:58:09;;;;;;;0.37;0.37;;;;;;;4.31;86.09;94986.37;4354287;32;20308;-71
2023/12/31 02:00:36;;;;;;;0.80;0.80;;;;;;;4.23;86.15;94987.66;4349826;32;20284;-72
2023/12/31 02:03:04;;;;;;;3.10;0.77;;;;;;;4.33;86.11;94984.28;4358139;32;20282;-71
2023/12/31 02:05:29;;;;;;;0.77;0.77;;;;;;;4.34;85.20;94981.41;4354842;32;20356;-72
2023/12/31 02:07:56;;;;;;;0.37;0.37;;;;;;;4.44;85.04;94977.97;4367285;32;20301;-71
2023/12/31 02:10:21;;;;;;;0.80;0.80;;;;;;;4.29;84.93;94976.13;4359349;32;20193;-71
2023/12/31 02:12:48;;;;;;;1.13;1.03;;;;;;;3.83;86.88;94974.50;4373430;32;20302;-71
2023/12/31 02:15:31;;;;;;;0.67;0.67;;;;;;;3.65;87.93;94975.75;4372402;32;20222;-71
2023/12/31 02:18:00;;;;;;;0.70;0.70;;;;;;;3.84;87.37;94962.94;4376195;32;20273;-71
2023/12/31 02:20:26;;;;;;;1.60;0.93;;;;;;;3.69;87.52;94961.88;4368442;32;20296;-71
2023/12/31 02:22:52;;;;;;;0.67;0.67;;;;;;;3.67;87.71;94958.72;4363372;32;20354;-71
2023/12/31 02:25:23;;;;;;;0.70;0.70;;;;;;;3.92;86.73;94958.00;4358474;32;20284;-71
2023/12/31 02:27:51;;;;;;;0.57;0.57;;;;;;;3.89;86.21;94955.87;4359584;32;20317;-71
2023/12/31 02:30:17;;;;;;;1.20;1.10;;;;;;;3.38;88.27;94954.94;4361200;32;20269;-71
2023/12/31 02:32:42;;;;;;;0.60;0.60;;;;;;;3.36;88.66;94942.09;4373470;32;20296;-71
2023/12/31 02:35:08;;;;;;;0.43;0.43;;;;;;;3.07;89.75;94941.75;4354377;32;20191;-65
2023/12/31 02:37:33;;;;;;;1.07;1.07;;;;;;;2.93;90.56;94934.56;4353760;32;20192;-71
2023/12/31 02:39:59;;;;;;;0.97;0.97;;;;;;;2.94;90.67;94933.53;4372122;32;20195;-72
2023/12/31 02:42:24;;;;;;;0.63;0.63;;;;;;;2.97;90.55;94933.03;4360418;32;20200;-71
2023/12/31 02:44:50;;;;;;;0.33;0.33;;;;;;;3.26;89.79;94928.19;4360492;32;20184;-71
2023/12/31 02:47:16;;;;;;;0.70;0.70;;;;;;;3.30;88.96;94924.00;4356786;32;20184;-71
2023/12/31 02:49:41;;;;;;;0.83;0.83;;;;;;;3.33;88.80;94921.62;4371614;32;20205;-71
2023/12/31 02:52:09;;;;;;;0.73;0.73;;;;;;;3.55;88.06;94925.91;4367956;32;20285;-71
2023/12/31 02:54:34;;;;;;;0.37;0.37;;;;;;;3.56;87.86;94924.84;4373338;32;20192;-71
2023/12/31 02:57:00;;;;;;;0.50;0.50;;;;;;;3.91;86.04;94916.28;4359939;32;20379;-71
2023/12/31 02:59:29;;;;;;;0.43;0.43;;;;;;;4.00;84.96;94904.97;4342906;32;20219;-71
2023/12/31 03:01:55;;;;;;;0.53;0.53;;;;;;;3.88;85.07;94907.09;4344765;32;20236;-71
2023/12/31 03:04:21;;;;;;;0.50;0.50;;;;;;;3.85;85.57;94902.34;4366363;32;20274;-71
2023/12/31 03:06:51;;;;;;;0.50;0.50;;;;;;;3.72;85.58;94908.13;4358366;32;20203;-71
2023/12/31 03:09:17;;;;;;;0.57;0.57;;;;;;;3.57;86.34;94901.00;4366899;32;20334;-71
2023/12/31 03:11:42;;;;;;;0.43;0.43;;;;;;;3.84;85.34;94890.28;4364466;32;20272;-71
2023/12/31 03:14:07;;;;;;;0.70;0.70;;;;;;;3.70;85.61;94894.47;4375948;32;20185;-72
2023/12/31 03:16:34;;;;;;;0.40;0.40;;;;;;;3.62;86.23;94887.09;4374747;32;20227;-71
2023/12/31 03:19:00;;;;;;;0.40;0.40;;;;;;;3.86;85.59;94882.16;4346287;32;20370;-71
2023/12/31 03:21:26;;;;;;;0.50;0.50;;;;;;;3.93;84.96;94877.44;4320496;32;20278;-71
2023/12/31 03:23:53;;;;;;;0.87;0.83;;;;;;;3.85;84.83;94876.12;4350270;32;20242;-71
2023/12/31 03:26:20;;;;;;;0.67;0.67;;;;;;;3.71;85.46;94864.56;4357109;32;20281;-71
2023/12/31 03:28:45;;;;;;;1.10;0.97;;;;;;;3.36;86.10;94873.94;4371233;32;20307;-70
2023/12/31 03:31:13;;;;;;;0.93;0.93;;;;;;;3.10;87.21;94867.88;4370644;32;20264;-71
2023/12/31 03:33:40;;;;;;;0.83;0.60;;;;;;;2.91;88.37;94864.09;4370740;32;20192;-71
2023/12/31 03:36:09;;;;;;;0.37;0.37;;;;;;;2.95;88.67;94859.94;4373032;32;20277;-71
2023/12/31 03:38:35;;;;;;;0.80;0.80;;;;;;;3.07;87.82;94860.53;4365972;32;20284;-71
2023/12/31 03:41:01;;;;;;;0.30;0.30;;;;;;;3.02;87.90;94851.84;4363199;32;20288;-71
2023/12/31 03:43:27;;;;;;;0.70;0.70;;;;;;;2.79;88.58;94842.59;4366076;32;20302;-72
2023/12/31 03:45:53;;;;;;;0.70;0.70;;;;;;;2.77;89.08;94847.28;4363282;32;20197;-71
2023/12/31 03:48:18;;;;;;;0.33;0.33;;;;;;;2.75;88.89;94844.94;4341240;32;20327;-71
2023/12/31 03:50:43;;;;;;;0.60;0.60;;;;;;;2.82;89.17;94842.09;4357311;32;20395;-71
2023/12/31 03:53:10;;;;;;;1.73;0.77;;;;;;;3.19;88.04;94836.69;4319927;32;20197;-71
2023/12/31 03:55:36;;;;;;;0.50;0.50;;;;;;;3.35;86.64;94838.28;4359349;32;20214;-72
2023/12/31 03:58:01;;;;;;;0.77;0.77;;;;;;;3.17;86.64;94838.00;4331975;32;20285;-72
2023/12/31 04:00:26;;;;;;;0.20;0.20;;;;;;;3.21;86.45;94833.81;4372454;32;20180;-71
2023/12/31 04:02:52;;;;;;;0.80;0.80;;;;;;;3.10;86.81;94843.50;4372390;32;20208;-71
2023/12/31 04:05:19;;;;;;;0.50;0.50;;;;;;;3.04;87.25;94847.13;4375045;32;20206;-71
2023/12/31 04:07:47;;;;;;;0.57;0.57;;;;;;;2.91;87.73;94843.16;4339950;32;20196;-71
2023/12/31 04:10:12;;;;;;;0.20;0.20;;;;;;;2.91;87.82;94835.28;4374036;32;20281;-71
2023/12/31 04:12:38;;;;;;;0.60;0.60;;;;;;;2.70;88.52;94828.44;4360544;32;20256;-62
2023/12/31 04:15:07;;;;;;;0.20;0.20;;;;;;;2.76;88.42;94828.19;4347936;32;20227;-72
2023/12/31 04:17:38;;;;;;;0.83;0.83;;;;;;;2.68;88.28;94830.53;4336255;32;20228;-71
2023/12/31 04:20:06;;;;;;;0.50;0.50;;;;;;;2.63;88.55;94822.62;4345512;32;20316;-71
2023/12/31 04:22:32;;;;;;;0.37;0.37;;;;;;;2.70;88.21;94818.72;4366518;32;20304;-71
2023/12/31 04:24:59;;;;;;;0.57;0.57;;;;;;;2.92;87.30;94821.16;4333760;32;20426;-71
2023/12/31 04:27:25;;;;;;;0.30;0.30;;;;;;;2.87;86.81;94818.53;4355807;32;20303;-71
2023/12/31 04:29:51;;;;;;;0.93;0.93;;;;;;;2.96;86.11;94816.97;4363849;32;20411;-71
2023/12/31 04:32:17;;;;;;;0.20;0.20;;;;;;;3.00;85.71;94818.03;4342543;32;20316;-71
2023/12/31 04:34:43;;;;;;;0.63;0.40;;;;;;;3.17;85.33;94802.09;4329034;32;20211;-71
2023/12/31 04:37:09;;;;;;;0.40;0.40;;;;;;;3.26;84.75;94815.50;4368115;32;20246;-68
2023/12/31 04:39:35;;;;;;;0.50;0.50;;;;;;;3.60;83.22;94810.53;4363620;32;20197;-71
2023/12/31 04:42:03;;;;;;;0.67;0.67;;;;;;;3.66;82.56;94796.38;4362125;32;20284;-71
2023/12/31 04:44:29;;;;;;;0.20;0.20;;;;;;;3.62;82.09;94797.94;4374069;32;20333;-71
2023/12/31 04:46:54;;;;;;;0.30;0.30;;;;;;;3.77;81.20;94784.81;4370063;32;20304;-72
2023/12/31 04:49:20;;;;;;;0.40;0.40;;;;;;;3.88;80.47;94785.63;4372894;32;20324;-71
2023/12/31 04:51:45;;;;;;;0.40;0.40;;;;;;;3.72;80.73;94782.22;4373704;32;20173;-71
2023/12/31 04:54:11;;;;;;;0.53;0.53;;;;;;;3.39;82.07;94776.44;4347396;32;20238;-71
2023/12/31 04:56:37;;;;;;;0.30;0.30;;;;;;;3.30;82.32;94775.41;4358717;32;20181;-72
2023/12/31 04:59:03;;;;;;;0.40;0.40;;;;;;;3.41;82.02;94756.00;4359318;32;20586;-71
2023/12/31 05:01:32;;;;;;;0.30;0.30;;;;;;;3.52;81.65;94750.78;4312744;32;20306;-71
2023/12/31 05:04:00;;;;;;;0.43;0.43;;;;;;;3.14;82.34;94760.69;4331145;32;20224;-72
2023/12/31 05:06:26;;;;;;;0.30;0.30;;;;;;;2.97;83.53;94749.66;4342042;32;20322;-72
2023/12/31 05:08:54;;;;;;;0.63;0.63;;;;;;;3.09;83.00;94743.16;4351657;32;20296;-72
2023/12/31 05:11:19;;;;;;;0.30;0.30;;;;;;;2.80;84.05;94739.41;4358684;32;20236;-72
2023/12/31 05:13:46;;;;;;;0.50;0.50;;;;;;;3.01;83.46;94735.00;4366390;32;20287;-72
2023/12/31 05:16:14;;;;;;;0.43;0.17;;;;;;;3.03;82.95;94740.78;4359038;32;20207;-72
2023/12/31 05:18:54;;;;;;;0.83;0.57;;;;;;;3.21;82.35;94736.84;4327360;32;20298;-72
2023/12/31 05:21:21;;;;;;;0.10;0.10;;;;;;;3.32;81.74;94735.84;4348331;32;20382;-73
2023/12/31 05:23:46;;;;;;;0.33;0.33;;;;;;;3.36;81.45;94735.03;4370045;32;20277;-72
2023/12/31 05:26:12;;;;;;;0.73;0.73;;;;;;;3.38;81.17;94730.31;4360589;32;20315;-71
2023/12/31 05:28:40;;;;;;;0.23;0.23;;;;;;;3.41;81.37;94727.16;4370640;32;20211;-72
2023/12/31 05:31:07;;;;;;;0.17;0.17;;;;;;;3.20;81.84;94728.22;4328457;32;20272;-72
2023/12/31 05:33:34;;;;;;;0.13;0.13;;;;;;;3.48;80.91;94726.13;4369289;32;20281;-72
2023/12/31 05:36:00;;;;;;;0.20;0.20;;;;;;;3.62;80.20;94721.91;4375013;32;20304;-72
2023/12/31 05:38:26;;;;;;;0.17;0.17;;;;;;;3.53;80.66;94728.75;4361734;32;20373;-72
2023/12/31 05:40:53;;;;;;;0.30;0.30;;;;;;;3.40;80.87;94722.97;4363141;32;20192;-73
2023/12/31 05:43:19;;;;;;;0.40;0.40;;;;;;;3.37;80.86;94726.09;4346977;32;20297;-72
2023/12/31 05:45:44;;;;;;;0.10;0.10;;;;;;;3.40;80.90;94728.22;4337069;32;20336;-72
2023/12/31 05:48:10;;;;;;;0.33;0.33;;;;;;;3.64;79.90;94727.69;4359396;32;20181;-71
2023/12/31 05:50:36;;;;;;;0.17;0.17;;;;;;;3.86;78.90;94720.28;4368274;32;20278;-73
2023/12/31 05:53:03;;;;;;;0.10;0.10;;;;;;;4.01;77.99;94715.00;4376142;32;20181;-72
2023/12/31 05:55:29;;;;;;;0.17;0.17;;;;;;;3.97;77.83;94713.97;4373893;32;25299;-72
2023/12/31 05:57:55;;;;;;;0.10;0.10;;;;;;;4.01;77.55;94709.75;4351242;32;20354;-72
2023/12/31 06:00:23;;;;;;;0.10;0.10;;;;;;;3.76;78.10;94715.06;4356689;32;20211;-73
2023/12/31 06:02:48;;;;;;;0.40;0.40;;;;;;;3.68;78.51;94713.00;4338240;32;20328;-72
2023/12/31 06:05:15;;;;;;;0.20;0.20;;;;;;;3.65;78.68;94708.28;4350467;32;20300;-71
2023/12/31 06:07:40;;;;;;;0.67;0.67;;;;;;;3.59;79.25;94710.09;4373974;32;20180;-72
2023/12/31 06:10:16;;;;;;;0.30;0.30;;;;;;;3.32;80.33;94707.00;4360571;32;20334;-72
2023/12/31 06:12:41;;;;;;;0.43;0.43;;;;;;;3.10;80.83;94709.88;4330907;32;20204;-65
2023/12/31 06:15:11;;;;;;;0.17;0.17;;;;;;;3.00;81.67;94709.84;4369588;32;20270;-72
2023/12/31 06:17:37;;;;;;;6.23;0.80;;;;;;;2.84;82.47;94703.03;4362345;32;20276;-72
2023/12/31 06:20:06;;;;;;;3.30;0.60;;;;;;;2.87;82.51;94702.50;4357939;32;20319;-72
2023/12/31 06:22:31;;;;;;;2.10;0.70;;;;;;;2.94;81.84;94697.78;4342848;32;20273;-72
2023/12/31 06:24:57;;;;;;;0.17;0.17;;;;;;;3.00;81.50;94702.78;4362185;32;20295;-72
2023/12/31 06:27:22;;;;;;;1.13;0.47;;;;;;;2.89;81.78;94697.81;4334178;32;20181;-72
2023/12/31 06:29:50;;;;;;;0.23;0.23;;;;;;;2.64;82.97;94706.41;4362602;32;20185;-72
2023/12/31 06:32:16;;;;;;;0.10;0.10;;;;;;;2.75;82.99;94694.88;4362149;32;20200;-71
2023/12/31 06:34:43;;;;;;;1.60;0.60;;;;;;;2.59;83.41;94698.53;4364038;32;20316;-72
2023/12/31 06:37:08;;;;;;;0.20;0.20;;;;;;;2.68;83.28;94689.91;4371477;32;20277;-68
2023/12/31 06:39:33;;;;;;;3.70;0.43;;;;;;;2.83;82.63;94688.34;4376478;32;20351;-72
2023/12/31 06:42:02;;;;;;;0.33;0.33;;;;;;;3.07;81.78;94676.34;4346637;32;20177;-72
2023/12/31 06:44:29;;;;;;;0.40;0.40;;;;;;;3.35;80.25;94673.16;4368882;32;20247;-72
2023/12/31 06:46:57;;;;;;;0.07;0.07;;;;;;;3.13;79.81;94670.03;4362822;32;20335;-72
2023/12/31 06:49:25;;;;;;;0.10;0.10;;;;;;;2.94;80.50;94671.59;4356053;32;20285;-71
2023/12/31 06:51:50;;;;;;;0.10;0.10;;;;;;;3.05;80.61;94673.19;4369159;32;20273;-71
2023/12/31 06:54:17;;;;;;;1.10;0.73;;;;;;;3.00;80.61;94673.19;4354857;32;20284;-71
2023/12/31 06:56:43;;;;;;;0.40;0.40;;;;;;;3.07;80.28;94673.72;4373171;32;20204;-71
2023/12/31 06:59:13;;;;;;;0.20;0.20;;;;;;;3.04;80.18;94679.47;4354377;32;20340;-70
2023/12/31 07:01:40;;;;;;;0.10;0.10;;;;;;;3.34;79.32;94663.72;4339979;32;20285;-69
2023/12/31 07:04:05;;;;;;;0.30;0.30;;;;;;;3.51;78.48;94646.94;4367696;32;20330;-72
2023/12/31 07:06:31;;;;;;;0.23;0.23;;;;;;;3.32;78.56;94651.97;4362856;32;20281;-71
2023/12/31 07:08:57;;;;;;;0.30;0.30;;;;;;;3.02;79.54;94650.13;4371720;32;20207;-72
2023/12/31 07:11:22;;;;;;;0.73;0.73;;;;;;;3.04;79.51;94645.41;4367287;32;20249;-71
2023/12/31 07:13:49;;;;;;;0.43;0.43;;;;;;;3.02;79.59;94642.28;4364939;32;20380;-72
2023/12/31 07:16:17;;;;;;;0.30;0.20;;;;;;;3.05;79.30;94631.28;4365515;32;20181;-71
2023/12/31 07:18:43;;;;;;;0.60;0.60;;;;;;;3.01;79.27;94631.00;4368364;32;20281;-72
2023/12/31 07:21:10;;;;;;;0.33;0.33;;;;;;;2.76;79.96;94623.94;4360371;32;20362;-71
2023/12/31 07:23:36;;;;;;;0.30;0.30;;;;;;;2.81;80.26;94609.28;4352651;32;20274;-71
2023/12/31 07:26:04;;;;;;;0.20;0.20;;;;;;;2.88;80.20;94612.41;4348072;32;20276;-71
2023/12/31 07:28:31;;;;;;;0.40;0.40;;;;;;;3.17;79.25;94596.94;4350277;32;20350;-71
2023/12/31 07:30:56;;;;;;;0.10;0.10;;;;;;;3.17;79.03;94597.72;4332620;32;20301;-71
2023/12/31 07:33:23;;;;;;;0.30;0.30;;;;;;;3.52;77.86;94598.69;4368180;32;20333;-72
2023/12/31 07:35:51;;;;;;;0.33;0.33;;;;;;;3.45;77.04;94594.53;4355566;32;20181;-71
2023/12/31 07:38:16;;;;;;;3.30;0.40;;;;;;;3.37;77.58;94602.13;4330419;32;20288;-71
2023/12/31 07:40:43;;;;;;;0.77;0.40;;;;;;;3.37;77.50;94583.78;4348702;32;20299;-71
2023/12/31 07:43:08;;;;;;;0.13;0.13;;;;;;;3.53;76.94;94584.53;4327308;32;20193;-72
2023/12/31 07:45:33;;;;;;;0.17;0.17;;;;;;;3.51;76.91;94589.28;4362523;32;20288;-72
2023/12/31 07:48:00;;;;;;;0.17;0.17;;;;;;;3.50;76.95;94579.84;4355756;32;20260;-72
2023/12/31 07:50:26;;;;;;;0.10;0.10;;;;;;;3.35;76.65;94573.56;4344663;32;20373;-72
2023/12/31 07:52:54;;;;;;;0.20;0.20;;;;;;;3.30;77.37;94570.97;4353010;32;20212;-72
2023/12/31 07:55:20;;;;;;;0.13;0.13;;;;;;;3.33;77.31;94574.87;4373102;32;20353;-72
2023/12/31 07:57:45;;;;;;;0.87;0.87;;;;;;;3.42;76.62;94576.69;4366343;32;20312;-72
2023/12/31 08:00:12;;;;;;;0.43;0.43;;;;;;;3.54;76.18;94580.84;4355312;32;20204;-67
2023/12/31 08:02:40;;;;;;;0.30;0.30;;;;;;;3.51;76.03;94589.28;4362546;32;20192;-73
2023/12/31 08:05:16;;;;;;;0.37;0.37;;;;;;;3.83;75.30;94588.87;4355637;32;20364;-72
2023/12/31 08:07:44;;;;;;;0.37;0.37;;;;;;;4.01;74.61;94590.91;4338963;32;20399;-72
2023/12/31 08:10:11;;;;;;;0.20;0.20;;;;;;;4.12;73.80;94602.94;4369751;32;20515;-71
2023/12/31 08:12:37;;;;;;;0.40;0.40;;;;;;;4.22;73.32;94591.56;4370552;32;20283;-72
2023/12/31 08:15:06;;;;;;;0.73;0.73;;;;;;;4.27;72.81;94594.97;4375346;32;20284;-72
2023/12/31 08:17:32;;;;;;;0.40;0.40;;;;;;;4.12;73.25;94587.97;4363430;32;20295;-73
2023/12/31 08:19:57;;;;;;;0.30;0.30;;;;;;;4.14;73.54;94591.09;4341393;32;20348;-72
2023/12/31 08:22:23;;;;;;;0.47;0.47;;;;;;;4.27;73.17;94591.56;4344725;32;20189;-72
2023/12/31 08:24:49;;;;;;;0.57;0.57;;;;;;;4.32;73.04;94596.78;4360912;32;20259;-74
2023/12/31 08:27:16;;;;;;;0.13;0.13;;;;;;;4.38;72.97;94596.47;4377098;32;20189;-72
2023/12/31 08:29:42;;;;;;;0.40;0.40;;;;;;;4.09;73.67;94598.22;4353338;32;20284;-72
2023/12/31 08:32:12;;;;;;;0.17;0.17;;;;;;;4.24;73.63;94595.50;4358577;32;20307;-72
2023/12/31 08:34:37;;;;;;;0.50;0.50;;;;;;;4.12;73.51;94593.22;4366619;32;20211;-72
2023/12/31 08:37:04;;;;;;;0.57;0.57;;;;;;;4.15;73.71;94597.16;4371183;32;20287;-72
2023/12/31 08:39:33;;;;;;;0.67;0.67;;;;;;;4.03;74.21;94600.06;4348623;32;20193;-72
2023/12/31 08:41:59;;;;;;;4.27;0.97;;;;;;;4.06;74.40;94604.78;4371647;32;20372;-72
2023/12/31 08:44:25;;;;;;;0.20;0.20;;;;;;;4.13;74.03;94605.28;4374011;32;20269;-72
2023/12/31 08:46:51;;;;;;;0.50;0.50;;;;;;;4.12;73.99;94614.22;4366905;32;20206;-72
2023/12/31 08:49:18;;;;;;;1.20;1.20;;;;;;;4.21;73.71;94606.53;4356936;32;20198;-72
2023/12/31 08:51:44;;;;;;;0.33;0.33;;;;;;;4.31;73.78;94605.72;4366325;32;20355;-72
2023/12/31 08:54:09;;;;;;;0.53;0.53;;;;;;;4.57;72.47;94599.25;4374461;32;20289;-71
2023/12/31 08:56:34;;;;;;;0.40;0.40;;;;;;;4.55;72.03;94604.00;4369519;32;20196;-72
2023/12/31 08:59:00;;;;;;;0.43;0.40;;;;;;;4.46;72.61;94608.25;4373915;32;20232;-72
2023/12/31 09:01:25;;;;;;;0.40;0.40;;;;;;;4.53;72.08;94603.47;4365796;32;20222;-72
2023/12/31 09:03:51;;;;;;;0.60;0.60;;;;;;;4.64;71.94;94599.72;4366200;32;20197;-71
2023/12/31 09:06:18;;;;;;;0.40;0.40;;;;;;;4.68;71.83;94598.09;4354029;32;20187;-71
2023/12/31 09:08:43;;;;;;;0.30;0.30;;;;;;;4.70;71.80;94603.09;4364935;32;20230;-71
2023/12/31 09:11:10;;;;;;;0.50;0.50;;;;;;;4.96;71.32;94598.44;4364002;32;20333;-68
2023/12/31 09:13:36;;;;;;;0.30;0.30;;;;;;;5.09;70.66;94595.16;4369187;32;20211;-72
2023/12/31 09:16:03;;;;;;;0.70;0.70;;;;;;;5.20;70.26;94594.00;4323390;32;20813;-72
2023/12/31 09:18:29;;;;;;;0.80;0.80;;;;;;;5.57;68.86;94595.22;4334204;32;20395;-72
2023/12/31 09:20:54;;;;;;;0.60;0.60;;;;;;;5.73;68.34;94588.72;4342182;32;20269;-72
2023/12/31 09:23:20;;;;;;;0.20;0.20;;;;;;;5.85;67.57;94594.38;4346753;32;20228;-71
2023/12/31 09:25:47;;;;;;;0.20;0.20;;;;;;;6.03;67.00;94592.88;4344120;32;20188;-72
2023/12/31 09:28:12;;;;;;;0.47;0.47;;;;;;;6.03;66.70;94592.88;4327203;32;20216;-72
2023/12/31 09:30:38;;;;;;;0.40;0.40;;;;;;;6.19;66.44;94597.69;4349383;32;20289;-72
2023/12/31 09:33:04;;;;;;;0.10;0.10;;;;;;;6.32;65.96;94600.66;4339626;32;20249;-72
2023/12/31 09:35:31;;;;;;;0.47;0.47;;;;;;;6.05;66.72;94596.78;4326908;32;20251;-72
2023/12/31 09:38:00;;;;;;;0.20;0.20;;;;;;;6.07;67.26;94602.56;4374527;32;20291;-72
2023/12/31 09:40:26;;;;;;;0.50;0.50;;;;;;;6.06;66.87;94598.34;4325225;32;20293;-72
2023/12/31 09:42:51;;;;;;;0.47;0.47;;;;;;;6.08;67.20;94600.72;4363573;32;20277;-73
2023/12/31 09:45:23;;;;;;;0.60;0.60;;;;;;;5.99;67.12;94597.94;4347048;32;20238;-71
2023/12/31 09:47:51;;;;;;;0.60;0.60;;;;;;;5.99;67.42;94595.31;4364119;32;20196;-73
2023/12/31 09:50:24;;;;;;;0.40;0.30;;;;;;;6.01;68.11;94595.03;4359803;32;20285;-72
2023/12/31 09:52:50;;;;;;;0.10;0.10;;;;;;;5.99;67.91;94597.94;4345436;32;20297;-73
2023/12/31 09:55:18;;;;;;;0.80;0.80;;;;;;;6.02;67.62;94593.97;4367786;32;20295;-73
2023/12/31 09:57:48;;;;;;;0.23;0.23;;;;;;;6.02;67.52;94596.59;4317769;32;20285;-72
2023/12/31 10:00:13;;;;;;;0.77;0.77;;;;;;;6.03;67.78;94598.13;4355034;32;20300;-73
2023/12/31 10:02:42;;;;;;;0.63;0.63;;;;;;;6.18;67.55;94588.22;4346840;32;20281;-71
2023/12/31 10:05:09;;;;;;;0.53;0.53;;;;;;;6.38;66.91;94594.28;4379909;32;20229;-73
2023/12/31 10:07:36;;;;;;;0.70;0.70;;;;;;;6.46;66.55;94594.41;4373793;32;20304;-73
2023/12/31 10:10:05;;;;;;;0.30;0.30;;;;;;;6.49;67.07;94593.06;4354553;32;20269;-73
2023/12/31 10:12:30;;;;;;;0.20;0.20;;;;;;;6.55;66.29;94586.66;4343181;32;20442;-72
2023/12/31 10:14:58;;;;;;;0.10;0.10;;;;;;;6.53;66.40;94588.78;4366417;32;20295;-72
2023/12/31 10:17:29;;;;;;;0.20;0.20;;;;;;;6.60;65.68;94594.50;4349544;32;20252;-72
2023/12/31 10:19:58;;;;;;;0.40;0.40;;;;;;;6.65;65.73;94583.84;4360782;32;20309;-72
2023/12/31 10:22:26;;;;;;;0.57;0.57;;;;;;;6.66;65.15;94585.41;4322684;32;20289;-72
2023/12/31 10:24:53;;;;;;;0.60;0.60;;;;;;;6.79;65.38;94586.56;4354488;32;20318;-72
2023/12/31 10:27:19;;;;;;;0.20;0.20;;;;;;;6.72;65.78;94581.66;4366666;32;20277;-72
2023/12/31 10:29:46;;;;;;;0.47;0.43;;;;;;;6.72;65.47;94581.66;4342057;32;20351;-72
2023/12/31 10:32:13;;;;;;;0.30;0.30;;;;;;;6.86;65.12;94587.75;4322014;32;20286;-72
2023/12/31 10:34:40;;;;;;;0.30;0.30;;;;;;;7.10;64.30;94597.41;4362314;32;20285;-72
2023/12/31 10:37:21;;;;;;;0.70;0.70;;;;;;;7.08;64.24;94649.63;4363807;32;20333;-72
2023/12/31 10:39:48;;;;;;;0.43;0.43;;;;;;;6.95;65.53;94616.88;4371147;32;20352;-72
2023/12/31 10:42:14;;;;;;;0.50;0.50;;;;;;;6.78;65.87;94635.84;4373722;32;20304;-72
2023/12/31 10:44:40;;;;;;;0.77;0.77;;;;;;;6.64;67.39;94626.31;4366080;32;20336;-70
2023/12/31 10:47:09;;;;;;;0.37;0.37;;;;;;;6.69;66.99;94623.59;4376062;32;20264;-72
2023/12/31 10:49:42;;;;;;;0.30;0.30;;;;;;;6.66;67.08;94622.31;4370568;32;20288;-72
2023/12/31 10:52:12;;;;;;;0.37;0.37;;;;;;;6.76;66.47;94611.63;4334803;32;20293;-72
2023/12/31 10:54:53;;;;;;;0.70;0.70;;;;;;;6.88;66.27;94598.78;4370942;32;20400;-72
2023/12/31 10:57:21;;;;;;;0.63;0.63;;;;;;;6.96;65.86;94594.72;4366218;32;20330;-72
2023/12/31 10:59:49;;;;;;;0.83;0.83;;;;;;;7.16;64.70;94586.47;4353322;32;20276;-72
2023/12/31 11:02:20;;;;;;;0.87;0.87;;;;;;;7.14;64.86;94590.47;4363687;32;20288;-72
2023/12/31 11:04:47;;;;;;;1.20;0.80;;;;;;;7.25;65.06;94578.69;4352084;32;20358;-72
2023/12/31 11:07:20;;;;;;;0.70;0.70;;;;;;;7.35;64.39;94575.88;4362468;32;20284;-71
2023/12/31 11:09:48;;;;;;;0.73;0.73;;;;;;;7.41;64.15;94561.53;4356111;32;20329;-72
2023/12/31 11:12:16;;;;;;;0.37;0.37;;;;;;;7.53;63.86;94556.53;4363040;32;20358;-69
2023/12/31 11:15:09;;;;;;;0.80;0.80;;;;;;;7.54;62.62;94550.19;4357563;32;20300;-72
2023/12/31 11:17:58;;;;;;;1.20;1.20;;;;;;;7.71;63.80;94536.37;4346605;32;20274;-72
2023/12/31 11:20:46;;;;;;;0.83;0.80;;;;;;;7.80;63.47;94539.13;4365799;32;20279;-71
2023/12/31 11:23:45;;;;;;;0.70;0.70;;;;;;;7.89;62.79;94532.09;4304847;32;20264;-62
2023/12/31 11:26:12;;;;;;;0.40;0.40;;;;;;;7.91;62.26;94537.84;4361444;32;20276;-72
2023/12/31 11:28:50;;;;;;;2.20;1.37;;;;;;;7.99;62.25;94529.22;4357795;32;20285;-61
2023/12/31 11:31:16;;;;;;;0.90;0.90;;;;;;;8.10;61.75;94522.69;4360913;32;20284;-71
2023/12/31 11:33:43;;;;;;;1.00;0.97;;;;;;;8.13;62.57;94524.69;4348544;32;20285;-71
2023/12/31 11:36:12;;;;;;;0.40;0.40;;;;;;;8.13;61.80;94523.91;4366652;32;20326;-72
2023/12/31 11:39:01;;;;;;;1.13;1.00;;;;;;;8.21;61.77;94520.59;4366162;32;20276;-73
2023/12/31 11:41:32;;;;;;;0.63;0.63;;;;;;;8.22;61.82;94520.28;4352270;32;20386;-72